Time,TemperatureF,DewpointF,PressureIn,WindDirection,WindDirectionDegrees,WindSpeedMPH,WindSpeedGustMPH,Humidity,HourlyPrecipIn,Conditions,Clouds,dailyrainin,SolarRadiationWatts/m^2,SoftwareType,DateUTC
2013-06-30 00:02:00,61.0,53.0,-100.00,ENE,67,1.0,3.0,75,0.00,,,0.00,0.000000,,2013-06-30 06:02:00,
2013-06-30 00:12:00,61.0,53.0,-100.00,ENE,67,1.0,3.0,75,0.00,,,0.00,0.000000,,2013-06-30 06:12:00,
2013-06-30 00:23:00,61.0,53.0,-100.00,ENE,67,1.0,3.0,75,0.00,,,0.00,0.000000,,2013-06-30 06:23:00,
2013-06-30 00:53:00,59.0,53.0,-100.00,SSE,151,1.0,4.0,80,0.00,,,0.00,0.000000,,2013-06-30 06:53:00,
2013-06-30 01:02:00,59.0,53.0,-100.00,SSE,151,1.0,4.0,80,0.00,,,0.00,0.000000,,2013-06-30 07:02:00,
2013-06-30 01:12:00,59.0,53.0,-100.00,SSE,151,1.0,4.0,80,0.00,,,0.00,0.000000,,2013-06-30 07:12:00,
2013-06-30 01:22:00,59.0,53.0,-100.00,SSE,151,1.0,4.0,80,0.00,,,0.00,0.000000,,2013-06-30 07:22:00,
2013-06-30 01:53:00,60.0,54.0,-100.00,SSW,198,2.0,4.0,81,0.00,,,-99.99,0.000000,,2013-06-30 07:53:00,
2013-06-30 02:02:00,60.0,54.0,-100.00,SSW,198,2.0,4.0,81,0.00,,,-99.99,0.000000,,2013-06-30 08:02:00,
2013-06-30 02:12:00,60.0,54.0,-100.00,SSW,198,2.0,4.0,81,0.00,,,-99.99,0.000000,,2013-06-30 08:12:00,
2013-06-30 02:22:00,60.0,54.0,-100.00,SSW,198,2.0,4.0,81,0.00,,,-99.99,0.000000,,2013-06-30 08:22:00,
2013-06-30 02:53:00,59.0,53.0,-100.00,SSW,210,2.0,5.0,81,0.00,,,-99.99,0.000000,,2013-06-30 08:53:00,
2013-06-30 03:01:00,59.0,53.0,-100.00,SSW,210,2.0,5.0,81,0.00,,,-99.99,0.000000,,2013-06-30 09:01:00,
2013-06-30 03:12:00,59.0,53.0,-100.00,SSW,210,2.0,5.0,81,0.00,,,-99.99,0.000000,,2013-06-30 09:12:00,
2013-06-30 03:23:00,59.0,53.0,-100.00,SSW,210,2.0,5.0,81,0.00,,,-99.99,0.000000,,2013-06-30 09:23:00,
2013-06-30 03:53:00,56.0,52.0,-100.00,SSW,210,3.0,4.0,86,0.00,,,0.00,0.000000,,2013-06-30 09:53:00,
2013-06-30 04:02:00,56.0,52.0,-100.00,SSW,210,3.0,4.0,86,0.00,,,0.00,0.000000,,2013-06-30 10:02:00,
2013-06-30 04:11:00,56.0,52.0,-100.00,SSW,210,3.0,4.0,86,0.00,,,0.00,0.000000,,2013-06-30 10:11:00,
2013-06-30 04:22:00,56.0,52.0,-100.00,SSW,210,3.0,4.0,86,0.00,,,0.00,0.000000,,2013-06-30 10:22:00,
2013-06-30 04:53:00,55.0,52.0,-100.00,SE,140,0.0,3.0,89,0.00,,,0.00,0.000000,,2013-06-30 10:53:00,
2013-06-30 05:02:00,55.0,52.0,-100.00,SE,140,0.0,3.0,89,0.00,,,0.00,0.000000,,2013-06-30 11:02:00,
2013-06-30 05:11:00,55.0,52.0,-100.00,SE,140,0.0,3.0,89,0.00,,,0.00,0.000000,,2013-06-30 11:11:00,
2013-06-30 05:22:00,55.0,52.0,-100.00,SE,140,0.0,3.0,89,0.00,,,0.00,0.000000,,2013-06-30 11:22:00,
2013-06-30 05:24:00,54.0,52.0,-100.00,South,177,1.0,2.0,93,0.00,,,0.00,2.000000,,2013-06-30 11:24:00,
2013-06-30 05:53:00,54.0,52.0,-100.00,South,177,1.0,2.0,93,0.00,,,0.00,2.000000,,2013-06-30 11:53:00,
2013-06-30 06:02:00,54.0,52.0,-100.00,South,177,1.0,2.0,93,0.00,,,0.00,2.000000,,2013-06-30 12:02:00,
2013-06-30 06:11:00,54.0,52.0,-100.00,South,177,1.0,2.0,93,0.00,,,0.00,2.000000,,2013-06-30 12:11:00,
2013-06-30 07:12:00,63.0,56.0,-100.00,SSW,194,2.0,4.0,78,0.00,,,0.00,85.000000,,2013-06-30 13:12:00,
2013-06-30 07:22:00,63.0,56.0,-100.00,SSW,194,2.0,4.0,78,0.00,,,0.00,85.000000,,2013-06-30 13:22:00,
2013-06-30 07:53:00,67.0,56.0,-100.00,SSE,150,4.0,8.0,69,0.00,,,0.00,248.000000,,2013-06-30 13:53:00,
2013-06-30 08:02:00,67.0,56.0,-100.00,SSE,150,4.0,8.0,69,0.00,,,0.00,248.000000,,2013-06-30 14:02:00,
2013-06-30 08:11:00,67.0,56.0,-100.00,SSE,150,4.0,8.0,69,0.00,,,0.00,248.000000,,2013-06-30 14:11:00,
2013-06-30 08:22:00,67.0,56.0,-100.00,SSE,150,4.0,8.0,69,0.00,,,0.00,248.000000,,2013-06-30 14:22:00,
2013-06-30 08:44:00,73.0,58.0,-100.00,SSE,149,5.0,10.0,60,0.00,,,0.00,412.000000,,2013-06-30 14:44:00,
2013-06-30 09:02:00,73.0,58.0,-100.00,SSE,149,5.0,10.0,60,0.00,,,0.00,412.000000,,2013-06-30 15:02:00,
2013-06-30 09:12:00,73.0,58.0,-100.00,SSE,149,5.0,10.0,60,0.00,,,0.00,412.000000,,2013-06-30 15:12:00,
2013-06-30 09:23:00,73.0,58.0,-100.00,SSE,149,5.0,10.0,60,0.00,,,0.00,412.000000,,2013-06-30 15:23:00,
2013-06-30 09:53:00,74.0,56.0,-100.00,SE,131,6.0,11.0,54,0.00,,,0.00,581.000000,,2013-06-30 15:53:00,
2013-06-30 10:01:00,74.0,56.0,-100.00,SE,131,6.0,11.0,54,0.00,,,0.00,581.000000,,2013-06-30 16:01:00,
2013-06-30 10:11:00,74.0,56.0,-100.00,SE,131,6.0,11.0,54,0.00,,,0.00,581.000000,,2013-06-30 16:11:00,
2013-06-30 10:21:00,74.0,56.0,-100.00,SE,131,6.0,11.0,54,0.00,,,0.00,581.000000,,2013-06-30 16:21:00,
2013-06-30 10:53:00,79.0,58.0,-100.00,ESE,113,5.0,14.0,49,0.00,,,0.00,843.000000,,2013-06-30 16:53:00,
2013-06-30 11:01:00,79.0,58.0,-100.00,ESE,113,5.0,14.0,49,0.00,,,0.00,843.000000,,2013-06-30 17:01:00,
2013-06-30 11:11:00,79.0,58.0,-100.00,ESE,113,5.0,14.0,49,0.00,,,0.00,843.000000,,2013-06-30 17:11:00,
2013-06-30 11:23:00,79.0,58.0,-100.00,ESE,113,5.0,14.0,49,0.00,,,0.00,843.000000,,2013-06-30 17:23:00,
2013-06-30 11:53:00,77.0,57.0,-100.00,ESE,122,5.0,11.0,50,0.00,,,0.00,699.000000,,2013-06-30 17:53:00,
2013-06-30 12:02:00,77.0,57.0,-100.00,ESE,122,5.0,11.0,50,0.00,,,0.00,699.000000,,2013-06-30 18:02:00,
2013-06-30 12:12:00,77.0,57.0,-100.00,ESE,122,5.0,11.0,50,0.00,,,0.00,699.000000,,2013-06-30 18:12:00,
2013-06-30 12:22:00,77.0,57.0,-100.00,ESE,122,5.0,11.0,50,0.00,,,0.00,699.000000,,2013-06-30 18:22:00,
2013-06-30 12:53:00,80.0,55.0,-100.00,SE,139,4.0,13.0,42,0.00,,,-99.99,950.000000,,2013-06-30 18:53:00,
2013-06-30 13:01:00,80.0,55.0,-100.00,SE,139,4.0,13.0,42,0.00,,,-99.99,950.000000,,2013-06-30 19:01:00,
2013-06-30 13:11:00,80.0,55.0,-100.00,SE,139,4.0,13.0,42,0.00,,,-99.99,950.000000,,2013-06-30 19:11:00,
2013-06-30 13:22:00,80.0,55.0,-100.00,SE,139,4.0,13.0,42,0.00,,,-99.99,950.000000,,2013-06-30 19:22:00,
2013-06-30 13:53:00,80.0,53.0,-100.00,East,91,7.0,15.0,39,0.00,,,0.00,1127.000000,,2013-06-30 19:53:00,
2013-06-30 14:02:00,80.0,53.0,-100.00,East,91,7.0,15.0,39,0.00,,,0.00,1127.000000,,2013-06-30 20:02:00,
2013-06-30 14:11:00,80.0,53.0,-100.00,East,91,7.0,15.0,39,0.00,,,0.00,1127.000000,,2013-06-30 20:11:00,
2013-06-30 14:22:00,80.0,53.0,-100.00,East,91,7.0,15.0,39,0.00,,,0.00,1127.000000,,2013-06-30 20:22:00,
2013-06-30 14:52:00,83.0,55.0,-100.00,East,92,6.0,14.0,38,0.00,,,0.00,1122.000000,,2013-06-30 20:52:00,
2013-06-30 15:01:00,83.0,55.0,-100.00,East,92,6.0,14.0,38,0.00,,,0.00,1122.000000,,2013-06-30 21:01:00,
2013-06-30 15:11:00,83.0,55.0,-100.00,East,92,6.0,14.0,38,0.00,,,0.00,1122.000000,,2013-06-30 21:11:00,
2013-06-30 15:22:00,83.0,55.0,-100.00,East,92,6.0,14.0,38,0.00,,,0.00,1122.000000,,2013-06-30 21:22:00,
2013-06-30 15:53:00,84.0,54.0,-100.00,East,80,5.0,14.0,36,0.00,,,0.00,1005.000000,,2013-06-30 21:53:00,
2013-06-30 16:01:00,84.0,54.0,-100.00,East,80,5.0,14.0,36,0.00,,,0.00,1005.000000,,2013-06-30 22:01:00,
2013-06-30 16:11:00,84.0,54.0,-100.00,East,80,5.0,14.0,36,0.00,,,0.00,1005.000000,,2013-06-30 22:11:00,
2013-06-30 16:22:00,84.0,54.0,-100.00,East,80,5.0,14.0,36,0.00,,,0.00,1005.000000,,2013-06-30 22:22:00,
2013-06-30 16:43:00,81.0,52.0,-100.00,ESE,119,7.0,13.0,36,0.00,,,0.00,848.000000,,2013-06-30 22:43:00,
2013-06-30 16:53:00,81.0,52.0,-100.00,ESE,119,7.0,13.0,36,0.00,,,0.00,848.000000,,2013-06-30 22:53:00,
2013-06-30 17:01:00,81.0,52.0,-100.00,ESE,119,7.0,13.0,36,0.00,,,0.00,848.000000,,2013-06-30 23:01:00,
2013-06-30 17:11:00,81.0,52.0,-100.00,ESE,119,7.0,13.0,36,0.00,,,0.00,848.000000,,2013-06-30 23:11:00,
2013-06-30 17:22:00,81.0,52.0,-100.00,ESE,119,7.0,13.0,36,0.00,,,0.00,848.000000,,2013-06-30 23:22:00,
2013-06-30 17:53:00,81.0,54.0,-100.00,ESE,121,5.0,14.0,39,0.00,,,0.00,560.000000,,2013-06-30 23:53:00,
2013-06-30 18:01:00,81.0,54.0,-100.00,ESE,121,5.0,14.0,39,0.00,,,0.00,560.000000,,2013-07-01 00:01:00,
2013-06-30 18:11:00,81.0,54.0,-100.00,ESE,121,5.0,14.0,39,0.00,,,0.00,560.000000,,2013-07-01 00:11:00,
2013-06-30 18:22:00,81.0,54.0,-100.00,ESE,121,5.0,14.0,39,0.00,,,0.00,560.000000,,2013-07-01 00:22:00,
2013-06-30 18:52:00,77.0,51.0,-100.00,ESE,114,5.0,12.0,41,0.00,,,0.00,390.000000,,2013-07-01 00:52:00,
2013-06-30 19:01:00,77.0,51.0,-100.00,ESE,114,5.0,12.0,41,0.00,,,0.00,390.000000,,2013-07-01 01:01:00,
2013-06-30 19:11:00,77.0,51.0,-100.00,ESE,114,5.0,12.0,41,0.00,,,0.00,390.000000,,2013-07-01 01:11:00,
2013-06-30 19:22:00,77.0,51.0,-100.00,ESE,114,5.0,12.0,41,0.00,,,0.00,390.000000,,2013-07-01 01:22:00,
2013-06-30 19:52:00,80.0,56.0,-100.00,SE,124,7.0,11.0,44,0.00,,,0.00,158.000000,,2013-07-01 01:52:00,
2013-06-30 20:02:00,80.0,56.0,-100.00,SE,124,7.0,11.0,44,0.00,,,0.00,158.000000,,2013-07-01 02:02:00,
2013-06-30 20:11:00,80.0,56.0,-100.00,SE,124,7.0,11.0,44,0.00,,,0.00,158.000000,,2013-07-01 02:11:00,
2013-06-30 20:22:00,80.0,56.0,-100.00,SE,124,7.0,11.0,44,0.00,,,0.00,158.000000,,2013-07-01 02:22:00,
2013-06-30 20:54:00,73.0,56.0,-100.00,ESE,116,5.0,12.0,56,0.00,,,0.00,79.000000,,2013-07-01 02:54:00,
2013-06-30 21:01:00,73.0,56.0,-100.00,ESE,116,5.0,12.0,56,0.00,,,0.00,79.000000,,2013-07-01 03:01:00,
2013-06-30 21:11:00,73.0,56.0,-100.00,ESE,116,5.0,12.0,56,0.00,,,0.00,79.000000,,2013-07-01 03:11:00,
2013-06-30 21:23:00,73.0,56.0,-100.00,ESE,116,5.0,12.0,56,0.00,,,0.00,79.000000,,2013-07-01 03:23:00,
2013-06-30 21:52:00,69.0,57.0,-100.00,SE,131,3.0,9.0,66,0.00,,,0.00,7.000000,,2013-07-01 03:52:00,
2013-06-30 22:01:00,69.0,57.0,-100.00,SE,131,3.0,9.0,66,0.00,,,0.00,7.000000,,2013-07-01 04:01:00,
2013-06-30 22:11:00,69.0,57.0,-100.00,SE,131,3.0,9.0,66,0.00,,,0.00,7.000000,,2013-07-01 04:11:00,
2013-06-30 22:22:00,69.0,57.0,-100.00,SE,131,3.0,9.0,66,0.00,,,0.00,7.000000,,2013-07-01 04:22:00,
2013-06-30 22:53:00,68.0,59.0,-100.00,ESE,123,5.0,10.0,72,0.00,,,0.00,0.000000,,2013-07-01 04:53:00,
2013-06-30 23:01:00,68.0,59.0,-100.00,ESE,123,5.0,10.0,72,0.00,,,0.00,0.000000,,2013-07-01 05:01:00,
2013-06-30 23:11:00,68.0,59.0,-100.00,ESE,123,5.0,10.0,72,0.00,,,0.00,0.000000,,2013-07-01 05:11:00,
2013-06-30 23:22:00,68.0,59.0,-100.00,ESE,123,5.0,10.0,72,0.00,,,0.00,0.000000,,2013-07-01 05:22:00,
2013-06-30 23:24:00,67.0,59.0,-100.00,ESE,123,5.0,10.0,75,0.00,,,0.00,0.000000,,2013-07-01 05:24:00,
2013-06-30 23:52:00,67.0,59.0,-100.00,ESE,123,5.0,10.0,75,0.00,,,0.00,0.000000,,2013-07-01 05:52:00,